Erath, LA (70533)

9:43 PM CDT on May 22, 2015 (GMT -0500)
Delcambre | | Change Station
CLOSE
Current Station
Personal Weather Station
Location: Erath, LA
Elevation: 0 ft
Nearby Weather Stations

Elev 0 ft 29.98 °N, 92.01 °W | Updated 18 seconds ago

Overcast
Overcast
75.3 °F
Feels Like 75 °F
N
2.0
Wind Variable Wind from NE
Gusts 3.0 mph

Today
High -- | Low -- °F
--% Chance of Precip.
Yesterday
High -- | Low -- °F
Precip. -- in
6:11 AM 7:58 PM
Waxing Crescent, 26% visible
Pressure 30.15 in
Visibility 8.0 miles
Clouds Few 2200 ft
Mostly Cloudy 3000 ft
Overcast 6500 ft
Heat Index 75 °F
Dew Point 72 °F
Humidity 90%
Rainfall 0.00 in
Snow Depth Not available.
UV 0 out of 12
Pollen 4.00 out of 12
Air Quality Not available.
Flu Activity Sporadic
SPECI KARA 230202Z AUTO 25003KT 8SM FEW022 BKN030 OVC065 26/22 A3015 RMK AO2 T02560222

More Conditions Fewer Conditions

Pressure 30.15 in
Visibility 8.0 miles
Clouds Few 2200 ft
Mostly Cloudy 3000 ft
Overcast 6500 ft
Heat Index 75 °F
Dew Point 72 °F
Humidity 90%
Rainfall 0.00 in
Snow Depth Not available.
UV 0 out of 12
Pollen 4.00 out of 12
Air Quality Not available.
Flu Activity Sporadic
SPECI KARA 230202Z AUTO 25003KT 8SM FEW022 BKN030 OVC065 26/22 A3015 RMK AO2 T02560222

More Conditions Fewer Conditions

Nowcast | as of 6:49 PM CDT on May 22, 2015

A few light showers were noted in the Gulf moving towards the coast this evening. This overall pattern will continue through midnight.

×

10-Day Weather Forecast

Almanac

Astronomy

May. 22, 2015 Rise Set
Actual Time
Civil Twilight
Nautical Twilight
Astronomical Twilight
Moon
Length of Visible Light
Length of Day
Tomorrow will be .
, % of the Moon is Illuminated

Today's Extremes

State Highs State Lows

Community

WunderPhotos

Upload Photos

1,823,371 photos uploaded!

WunderBlogs® & News

Nearby

Air Quality

  Air Quality AQ Index Pollutant
Not available.

Snow Depth

Station Depth Elevation

Earthquake Activity

City Distance Mag. Time & Date
Minimum magnitude displayed is 2.5.

Coastal Water Temperatures

Place Temperature

Stations

Nearby Weather Stations

Station Location Temp. Windchill Dew Point Humidity Wind Precip. Elev Updated Type